createdAt,value
2019-05-28T00:00:30.743Z,10.58
2019-05-28T00:03:02.683Z,11.12
2019-05-28T00:05:34.718Z,11.73
2019-05-28T00:08:06.665Z,12.07
2019-05-28T00:10:38.743Z,12.30
2019-05-28T00:13:10.539Z,12.60
2019-05-28T00:15:42.767Z,12.93
2019-05-28T00:18:14.586Z,11.12
2019-05-28T00:20:46.593Z,13.53
2019-05-28T00:23:18.426Z,12.80
2019-05-28T00:25:50.525Z,12.70
2019-05-28T00:28:22.469Z,12.93
2019-05-28T00:30:54.577Z,14.20
2019-05-28T00:33:26.301Z,13.35
2019-05-28T00:35:58.398Z,12.50
2019-05-28T00:38:30.392Z,12.78
2019-05-28T00:41:02.407Z,13.30
2019-05-28T00:43:34.331Z,10.28
2019-05-28T00:46:07.581Z,13.05
2019-05-28T00:48:40.616Z,12.58
2019-05-28T00:51:12.619Z,11.73
2019-05-28T00:53:44.936Z,10.58
2019-05-28T00:56:17.876Z,11.40
2019-05-28T00:58:51.440Z,12.53
2019-05-28T01:01:23.448Z,11.18
2019-05-28T01:03:55.302Z,11.22
2019-05-28T01:06:27.141Z,12.43
2019-05-28T01:09:00.096Z,11.70
2019-05-28T01:11:32.115Z,10.68
2019-05-28T01:14:03.898Z,9.38
2019-05-28T01:16:35.777Z,11.45
2019-05-28T01:19:07.555Z,10.82
2019-05-28T01:21:42.311Z,11.35
2019-05-28T01:24:13.329Z,10.65
2019-05-28T01:26:45.423Z,10.65
2019-05-28T01:29:17.241Z,10.60
2019-05-28T01:31:49.261Z,10.28
2019-05-28T01:34:21.015Z,12.35
2019-05-28T01:36:52.915Z,10.18
2019-05-28T01:39:24.908Z,10.90
2019-05-28T01:41:56.906Z,10.88
2019-05-28T01:44:28.672Z,11.25
2019-05-28T01:47:00.735Z,11.97
2019-05-28T01:49:32.485Z,11.50
2019-05-28T01:52:04.664Z,11.12
2019-05-28T01:54:36.489Z,11.05
2019-05-28T01:57:08.352Z,12.30
2019-05-28T01:59:40.117Z,9.95
2019-05-28T02:02:12.210Z,9.78
2019-05-28T02:04:44.037Z,11.00
2019-05-28T02:07:15.900Z,10.35
2019-05-28T02:09:47.982Z,11.10
2019-05-28T02:12:21.048Z,10.43
2019-05-28T02:14:52.811Z,11.20
2019-05-28T02:17:24.548Z,12.10
2019-05-28T02:19:56.278Z,13.85
2019-05-28T02:22:28.244Z,22.73
2019-05-28T02:25:00.241Z,18.65
2019-05-28T02:27:32.261Z,14.05
2019-05-28T02:30:04.176Z,15.58
2019-05-28T02:32:36.295Z,13.50
2019-05-28T02:35:09.378Z,14.60
2019-05-28T02:37:41.448Z,13.48
2019-05-28T02:40:14.060Z,13.78
2019-05-28T02:42:46.048Z,16.25
2019-05-28T02:45:18.840Z,18.12
2019-05-28T02:47:50.831Z,16.90
2019-05-28T02:51:02.193Z,18.82
2019-05-28T02:53:34.841Z,16.30
2019-05-28T02:56:06.954Z,17.37
2019-05-28T02:58:39.562Z,18.75
2019-05-28T03:01:11.470Z,15.70
2019-05-28T03:03:46.232Z,16.52
2019-05-28T03:06:19.941Z,20.70
2019-05-28T03:08:56.268Z,20.32
2019-05-28T03:11:28.189Z,18.98
2019-05-28T03:14:00.044Z,20.85
2019-05-28T03:16:36.435Z,27.62
2019-05-28T03:19:10.458Z,16.37
2019-05-28T03:21:43.011Z,17.95
2019-05-28T03:24:17.640Z,20.02
2019-05-28T03:26:49.728Z,19.62
2019-05-28T03:29:21.679Z,16.20
2019-05-28T03:32:07.325Z,17.50
2019-05-28T03:34:26.986Z,17.62
2019-05-28T03:37:01.025Z,19.45
2019-05-28T03:39:35.439Z,16.00
2019-05-28T03:42:07.478Z,18.07
2019-05-28T03:44:39.284Z,16.70
2019-05-28T03:47:11.080Z,19.95
2019-05-28T03:49:42.916Z,17.40
2019-05-28T03:52:14.711Z,16.42
2019-05-28T03:54:46.815Z,15.48
2019-05-28T03:57:18.994Z,21.68
2019-05-28T03:59:51.042Z,19.57
2019-05-28T04:02:24.217Z,23.30
2019-05-28T04:04:56.314Z,20.12
2019-05-28T04:07:28.113Z,20.57
2019-05-28T04:10:00.018Z,23.67
2019-05-28T04:12:32.833Z,25.20
2019-05-28T04:15:04.673Z,23.77
2019-05-28T04:17:36.543Z,20.85
2019-05-28T04:20:08.461Z,25.25
2019-05-28T04:22:40.285Z,19.07
2019-05-28T04:25:12.906Z,19.50
2019-05-28T04:27:44.787Z,24.23
2019-05-28T04:30:17.587Z,22.22
2019-05-28T04:32:49.375Z,19.20
2019-05-28T04:35:21.422Z,21.45
2019-05-28T04:37:53.244Z,21.02
2019-05-28T04:40:25.305Z,20.62
2019-05-28T04:42:57.135Z,23.92
2019-05-28T04:45:29.157Z,20.80
2019-05-28T04:48:00.935Z,21.85
2019-05-28T04:50:32.882Z,20.45
2019-05-28T04:53:04.762Z,21.23
2019-05-28T04:55:36.859Z,20.37
2019-05-28T04:58:08.970Z,21.07
2019-05-28T05:00:41.050Z,22.77
2019-05-28T05:03:12.922Z,21.23
2019-05-28T05:05:45.074Z,18.05
2019-05-28T05:08:16.883Z,21.48
2019-05-28T05:10:48.904Z,22.98
2019-05-28T05:13:20.755Z,20.17
2019-05-28T05:15:52.613Z,20.27
2019-05-28T05:18:24.425Z,24.75
2019-05-28T05:20:56.307Z,20.05
2019-05-28T05:23:28.136Z,17.00
2019-05-28T05:26:00.287Z,20.48
2019-05-28T05:28:32.324Z,19.10
2019-05-28T05:31:05.657Z,20.77
2019-05-28T05:33:37.426Z,18.77
2019-05-28T05:36:09.330Z,20.25
2019-05-28T05:38:41.179Z,19.75
2019-05-28T05:41:13.281Z,18.07
2019-05-28T05:43:45.399Z,19.27
2019-05-28T05:46:17.723Z,22.50
2019-05-28T05:48:49.497Z,20.37
2019-05-28T05:51:21.548Z,21.02
2019-05-28T05:53:53.323Z,21.75
2019-05-28T05:56:25.468Z,22.13
2019-05-28T05:58:57.608Z,22.67
2019-05-28T06:01:29.636Z,21.82
2019-05-28T06:04:01.436Z,19.20
2019-05-28T06:06:33.429Z,25.23
2019-05-28T06:09:06.449Z,21.10
2019-05-28T06:11:38.492Z,22.85
2019-05-28T06:14:10.501Z,22.35
2019-05-28T06:16:43.539Z,23.32
2019-05-28T06:19:15.328Z,20.32
2019-05-28T06:21:47.331Z,18.62
2019-05-28T06:24:19.080Z,15.83
2019-05-28T06:26:51.008Z,16.48
2019-05-28T06:29:23.103Z,14.43
2019-05-28T06:31:54.926Z,15.13
2019-05-28T06:34:26.710Z,14.53
2019-05-28T06:36:58.738Z,12.98
2019-05-28T06:39:30.585Z,13.48
2019-05-28T06:42:02.455Z,18.73
2019-05-28T06:44:34.679Z,15.18
2019-05-28T06:47:06.812Z,13.58
2019-05-28T06:49:38.622Z,15.08
2019-05-28T06:52:10.718Z,13.85
2019-05-28T06:54:42.510Z,14.47
2019-05-28T06:57:22.735Z,13.53
2019-05-28T06:59:48.188Z,14.93
2019-05-28T07:02:20.014Z,13.62
2019-05-28T07:04:51.768Z,14.95
2019-05-28T07:07:23.608Z,14.40
2019-05-28T07:09:55.400Z,12.75
2019-05-28T07:12:27.290Z,14.55
2019-05-28T07:14:59.408Z,15.05
2019-05-28T07:17:31.330Z,14.15
2019-05-28T07:20:03.107Z,16.02
2019-05-28T07:22:35.028Z,11.75
2019-05-28T07:25:07.508Z,11.20
2019-05-28T07:27:39.576Z,15.60
2019-05-28T07:30:12.286Z,15.10
2019-05-28T07:32:44.228Z,13.90
2019-05-28T07:35:16.029Z,12.55
2019-05-28T07:37:48.080Z,14.73
2019-05-28T07:40:31.263Z,15.23
2019-05-28T07:42:53.580Z,14.10
2019-05-28T07:45:25.595Z,11.65
2019-05-28T07:47:57.461Z,13.75
2019-05-28T07:50:29.238Z,15.38
2019-05-28T07:53:00.997Z,21.65
2019-05-28T07:55:32.850Z,14.98
2019-05-28T07:58:04.731Z,24.95
2019-05-28T08:00:46.215Z,15.18
2019-05-28T08:03:18.176Z,15.35
2019-05-28T08:05:49.954Z,15.23
2019-05-28T08:08:24.690Z,16.42
2019-05-28T08:10:56.579Z,11.63
2019-05-28T08:13:40.327Z,12.55
2019-05-28T08:16:17.572Z,11.90
2019-05-28T08:18:36.538Z,11.38
2019-05-28T08:21:08.443Z,10.78
2019-05-28T08:23:40.438Z,9.40
2019-05-28T08:26:12.307Z,9.85
2019-05-28T08:28:44.136Z,10.75
2019-05-28T08:31:20.694Z,9.98
2019-05-28T08:33:49.866Z,9.68
2019-05-28T08:36:21.639Z,10.85
2019-05-28T08:38:53.782Z,10.63
2019-05-28T08:41:25.544Z,10.08
2019-05-28T08:43:57.518Z,11.97
2019-05-28T08:46:29.619Z,9.98
2019-05-28T08:49:01.622Z,12.88
2019-05-28T08:51:33.377Z,11.00
2019-05-28T08:54:05.783Z,10.20
2019-05-28T08:56:37.529Z,11.88
2019-05-28T08:59:09.595Z,10.00
2019-05-28T09:01:41.652Z,11.25
2019-05-28T09:04:13.616Z,8.10
2019-05-28T09:06:45.935Z,9.10
2019-05-28T09:09:17.831Z,7.33
2019-05-28T09:11:50.001Z,10.40
2019-05-28T09:14:22.050Z,11.33
2019-05-28T09:16:55.261Z,10.98
2019-05-28T09:19:27.143Z,9.48
2019-05-28T09:21:59.265Z,8.65
2019-05-28T09:24:33.892Z,8.43
2019-05-28T09:27:07.042Z,8.60
2019-05-28T09:29:39.458Z,8.50
2019-05-28T09:32:11.683Z,8.30
2019-05-28T09:34:43.967Z,7.25
2019-05-28T09:37:15.888Z,7.95
2019-05-28T09:39:47.826Z,8.95
2019-05-28T09:42:19.738Z,6.47
2019-05-28T09:44:51.633Z,5.95
2019-05-28T09:47:23.622Z,7.58
2019-05-28T09:49:56.390Z,5.92
2019-05-28T09:52:28.282Z,7.65
2019-05-28T09:55:00.296Z,6.70
2019-05-28T09:57:46.438Z,7.12
2019-05-28T10:00:08.820Z,6.78
2019-05-28T10:02:41.729Z,7.78
2019-05-28T10:05:13.961Z,6.37
2019-05-28T10:07:45.726Z,6.65
2019-05-28T10:10:17.786Z,8.18
2019-05-28T10:12:49.660Z,8.40
2019-05-28T10:15:22.050Z,5.83
2019-05-28T10:17:53.928Z,7.08
2019-05-28T10:20:27.181Z,6.80
2019-05-28T10:22:59.060Z,6.35
2019-05-28T10:25:31.221Z,6.67
2019-05-28T10:28:03.085Z,8.03
2019-05-28T10:30:35.018Z,7.17
2019-05-28T10:33:07.056Z,6.37
2019-05-28T10:35:38.916Z,7.37
2019-05-28T10:38:15.265Z,6.05
2019-05-28T10:40:44.521Z,8.60
2019-05-28T10:43:16.401Z,6.22
2019-05-28T10:45:48.427Z,9.63
2019-05-28T10:48:20.401Z,8.53
2019-05-28T10:50:52.390Z,5.60
2019-05-28T10:53:25.149Z,6.78
2019-05-28T10:55:57.144Z,8.58
2019-05-28T10:58:28.967Z,6.62
2019-05-28T11:01:02.074Z,6.20
2019-05-28T11:03:34.101Z,9.03
2019-05-28T11:06:06.206Z,5.85
2019-05-28T11:08:38.027Z,5.25
2019-05-28T11:11:10.051Z,8.45
2019-05-28T11:13:52.701Z,5.90
2019-05-28T11:16:15.804Z,5.83
2019-05-28T11:18:47.842Z,7.45
2019-05-28T11:21:19.949Z,6.42
2019-05-28T11:23:51.723Z,6.30
2019-05-28T11:26:23.633Z,8.43
2019-05-28T11:28:55.571Z,6.30
2019-05-28T11:31:27.694Z,7.00
2019-05-28T11:33:59.502Z,10.20
2019-05-28T11:36:32.056Z,11.50
2019-05-28T11:39:06.602Z,7.62
2019-05-28T11:41:42.670Z,8.65
2019-05-28T11:44:12.391Z,7.45
2019-05-28T11:46:44.525Z,7.45
2019-05-28T11:49:16.412Z,10.08
2019-05-28T11:51:48.843Z,6.60
2019-05-28T11:54:20.809Z,5.87
2019-05-28T11:56:52.671Z,10.08
2019-05-28T11:59:24.462Z,9.30
2019-05-28T12:01:56.805Z,19.90
2019-05-28T12:04:29.018Z,7.62
2019-05-28T12:07:00.851Z,6.10
2019-05-28T12:09:33.559Z,8.15
2019-05-28T12:12:05.722Z,8.18
2019-05-28T12:14:37.663Z,5.53
2019-05-28T12:17:09.700Z,7.83
2019-05-28T12:19:41.882Z,7.37
2019-05-28T12:22:14.037Z,6.35
2019-05-28T12:24:45.865Z,7.20
2019-05-28T12:27:17.674Z,8.45
2019-05-28T12:29:52.160Z,5.22
2019-05-28T12:32:22.989Z,8.35
2019-05-28T12:34:55.112Z,7.92
2019-05-28T12:37:46.248Z,7.12
2019-05-28T12:40:01.081Z,8.78
2019-05-28T12:42:33.382Z,7.97
2019-05-28T12:45:09.801Z,8.23
2019-05-28T12:47:39.742Z,7.37
2019-05-28T12:50:19.828Z,6.47
2019-05-28T12:52:47.844Z,5.60
2019-05-28T12:55:21.388Z,8.83
2019-05-28T12:57:53.929Z,7.97
2019-05-28T13:00:27.862Z,7.17
2019-05-28T13:03:00.551Z,10.15
2019-05-28T13:05:33.913Z,8.30
2019-05-28T13:08:09.906Z,9.53
2019-05-28T13:10:39.792Z,10.38
2019-05-28T13:13:11.814Z,10.68
2019-05-28T13:15:43.705Z,7.83
2019-05-28T13:18:15.647Z,9.65
2019-05-28T13:20:48.414Z,9.53
2019-05-28T13:23:20.928Z,8.05
2019-05-28T13:25:52.689Z,9.58
2019-05-28T13:28:24.592Z,7.30
2019-05-28T13:30:56.393Z,7.53
2019-05-28T13:33:28.329Z,7.72
2019-05-28T13:36:01.828Z,8.08
2019-05-28T13:38:33.941Z,12.03
2019-05-28T13:41:05.834Z,10.75
2019-05-28T13:43:37.878Z,11.73
2019-05-28T13:46:09.745Z,11.08
2019-05-28T13:48:41.648Z,11.50
2019-05-28T13:51:13.863Z,7.80
2019-05-28T13:53:45.904Z,12.18
2019-05-28T13:56:17.644Z,8.63
2019-05-28T13:58:49.990Z,9.85
2019-05-28T14:01:25.455Z,12.95
2019-05-28T14:03:55.612Z,13.43
2019-05-28T14:06:27.868Z,11.57
2019-05-28T14:09:00.183Z,12.28
2019-05-28T14:11:32.425Z,12.18
2019-05-28T14:14:04.816Z,12.15
2019-05-28T14:16:36.787Z,10.08
2019-05-28T14:19:09.150Z,12.33
2019-05-28T14:21:41.597Z,12.95
2019-05-28T14:24:13.879Z,8.73
2019-05-28T14:26:46.324Z,9.40
2019-05-28T14:29:19.075Z,13.53
2019-05-28T14:31:51.205Z,7.75
2019-05-28T14:34:23.124Z,7.55
2019-05-28T14:36:56.201Z,6.75
2019-05-28T14:39:40.576Z,6.95
2019-05-28T14:42:02.750Z,9.53
2019-05-28T14:44:34.975Z,9.55
2019-05-28T14:47:06.964Z,9.80
2019-05-28T14:49:39.074Z,7.03
2019-05-28T14:52:11.147Z,4.83
2019-05-28T14:54:43.307Z,7.00
2019-05-28T14:57:15.179Z,6.90
2019-05-28T14:59:47.450Z,6.85
2019-05-28T15:02:19.848Z,6.08
2019-05-28T15:04:51.891Z,8.98
2019-05-28T15:07:24.569Z,3.85
2019-05-28T15:09:56.612Z,7.47
2019-05-28T15:12:28.453Z,5.15
2019-05-28T15:15:00.539Z,6.87
2019-05-28T15:17:32.382Z,6.17
2019-05-28T15:20:06.256Z,6.30
2019-05-28T15:22:39.634Z,7.15
2019-05-28T15:25:12.489Z,8.20
2019-05-28T15:27:44.577Z,6.33
2019-05-28T15:30:18.740Z,3.75
2019-05-28T15:32:50.602Z,3.55
2019-05-28T15:35:22.846Z,1.72
2019-05-28T15:37:55.204Z,3.33
2019-05-28T15:40:27.211Z,2.47
2019-05-28T15:43:06.075Z,2.05
2019-05-28T15:45:33.365Z,2.98
2019-05-28T15:48:05.524Z,2.80
2019-05-28T15:50:37.688Z,2.25
2019-05-28T15:53:09.906Z,1.77
2019-05-28T15:55:42.246Z,2.87
2019-05-28T15:58:14.279Z,1.60
2019-05-28T16:00:46.695Z,1.37
2019-05-28T16:03:18.647Z,2.22
2019-05-28T16:05:50.636Z,2.42
2019-05-28T16:08:22.708Z,3.75
2019-05-28T16:10:54.785Z,1.98
2019-05-28T16:13:26.629Z,1.77
2019-05-28T16:15:58.879Z,2.22
2019-05-28T16:18:30.815Z,2.27
2019-05-28T16:21:02.777Z,2.85
2019-05-28T16:23:35.081Z,2.62
2019-05-28T16:26:06.966Z,2.05
2019-05-28T16:28:38.794Z,4.03
2019-05-28T16:31:12.765Z,4.15
2019-05-28T16:33:44.446Z,2.22
2019-05-28T16:36:16.370Z,2.27
2019-05-28T16:38:48.507Z,1.47
2019-05-28T16:41:20.613Z,4.12
2019-05-28T16:43:52.442Z,2.98
2019-05-28T16:46:24.377Z,2.83
2019-05-28T16:48:56.337Z,2.00
2019-05-28T16:51:30.952Z,3.52
2019-05-28T16:54:18.192Z,3.17
2019-05-28T16:56:37.128Z,3.25
2019-05-28T16:59:09.067Z,4.72
2019-05-28T17:01:42.086Z,2.55
2019-05-28T17:04:13.948Z,3.25
2019-05-28T17:06:46.105Z,3.47
2019-05-28T17:09:18.333Z,5.05
2019-05-28T17:11:50.590Z,5.33
2019-05-28T17:14:26.767Z,3.55
2019-05-28T17:16:57.022Z,3.62
2019-05-28T17:19:29.160Z,3.20
2019-05-28T17:22:01.250Z,2.70
2019-05-28T17:24:33.208Z,4.55
2019-05-28T17:27:05.190Z,7.08
2019-05-28T17:29:37.038Z,5.87
2019-05-28T17:32:09.018Z,4.17
2019-05-28T17:34:41.022Z,6.35
2019-05-28T17:37:12.951Z,4.35
2019-05-28T17:39:44.876Z,3.80
2019-05-28T17:42:16.874Z,4.33
2019-05-28T17:44:48.707Z,3.15
2019-05-28T17:47:20.990Z,3.67
2019-05-28T17:49:52.938Z,11.25
2019-05-28T17:52:24.955Z,3.42
2019-05-28T17:54:56.928Z,6.37
2019-05-28T17:57:29.063Z,3.92
2019-05-28T18:00:00.961Z,4.62
2019-05-28T18:02:34.838Z,4.67
2019-05-28T18:05:07.747Z,7.00
2019-05-28T18:07:39.744Z,5.00
2019-05-28T18:10:13.577Z,4.25
2019-05-28T18:12:45.973Z,7.25
2019-05-28T18:15:19.579Z,4.33
2019-05-28T18:17:51.449Z,7.33
2019-05-28T18:20:23.611Z,8.40
2019-05-28T18:22:55.766Z,6.20
2019-05-28T18:25:27.613Z,7.80
2019-05-28T18:27:59.741Z,7.33
2019-05-28T18:30:31.538Z,6.92
2019-05-28T18:33:03.561Z,6.58
2019-05-28T18:35:35.556Z,5.40
2019-05-28T18:38:07.965Z,5.92
2019-05-28T18:40:40.118Z,6.20
2019-05-28T18:43:12.116Z,6.53
2019-05-28T18:45:43.981Z,7.25
2019-05-28T18:48:15.937Z,7.00
2019-05-28T18:50:48.689Z,7.00
2019-05-28T18:53:21.058Z,7.42
2019-05-28T18:55:53.332Z,7.67
2019-05-28T18:58:25.737Z,8.93
2019-05-28T19:00:57.784Z,10.00
2019-05-28T19:03:30.069Z,7.80
2019-05-28T19:06:02.003Z,6.92
2019-05-28T19:08:34.102Z,8.65
2019-05-28T19:11:06.335Z,10.35
2019-05-28T19:13:38.391Z,11.25
2019-05-28T19:16:10.327Z,13.62
2019-05-28T19:18:42.840Z,13.48
2019-05-28T19:21:14.675Z,8.28
2019-05-28T19:23:46.897Z,14.43
2019-05-28T19:26:19.581Z,10.40
2019-05-28T19:28:52.096Z,11.35
2019-05-28T19:31:24.326Z,9.15
2019-05-28T19:33:57.251Z,9.98
2019-05-28T19:36:31.538Z,9.20
2019-05-28T19:39:07.595Z,9.60
2019-05-28T19:41:52.496Z,7.60
2019-05-28T19:44:13.709Z,9.93
2019-05-28T19:46:45.793Z,10.03
2019-05-28T19:49:17.794Z,9.38
2019-05-28T19:51:49.663Z,9.05
2019-05-28T19:54:21.736Z,11.08
2019-05-28T19:56:53.706Z,9.03
2019-05-28T19:59:25.616Z,9.05
2019-05-28T20:01:57.470Z,11.05
2019-05-28T20:04:29.579Z,8.35
2019-05-28T20:07:02.121Z,8.23
2019-05-28T20:09:34.122Z,7.97
2019-05-28T20:12:12.740Z,10.00
2019-05-28T20:14:39.682Z,11.25
2019-05-28T20:17:11.515Z,10.00
2019-05-28T20:19:43.593Z,9.13
2019-05-28T20:22:15.412Z,9.63
2019-05-28T20:24:47.833Z,8.00
2019-05-28T20:27:19.930Z,8.45
2019-05-28T20:29:52.065Z,11.00
2019-05-28T20:32:23.925Z,12.60
2019-05-28T20:34:56.302Z,11.35
2019-05-28T20:37:28.280Z,12.33
2019-05-28T20:40:00.309Z,11.12
2019-05-28T20:42:35.673Z,11.60
2019-05-28T20:45:08.955Z,7.78
2019-05-28T20:47:42.020Z,12.05
2019-05-28T20:50:14.401Z,9.40
2019-05-28T20:52:46.193Z,12.23
2019-05-28T20:55:20.440Z,10.10
2019-05-28T20:57:53.361Z,9.95
2019-05-28T21:00:26.032Z,14.83
2019-05-28T21:02:57.935Z,11.83
2019-05-28T21:05:30.232Z,14.40
2019-05-28T21:08:02.028Z,11.15
2019-05-28T21:10:34.151Z,10.20
2019-05-28T21:13:06.832Z,11.80
2019-05-28T21:15:38.859Z,11.60
2019-05-28T21:18:10.803Z,9.20
2019-05-28T21:20:42.672Z,11.68
2019-05-28T21:23:17.688Z,12.20
2019-05-28T21:25:50.043Z,11.43
2019-05-28T21:28:25.760Z,11.70
2019-05-28T21:30:57.185Z,13.03
2019-05-28T21:33:29.039Z,13.10
2019-05-28T21:36:01.438Z,10.48
2019-05-28T21:38:33.297Z,11.55
2019-05-28T21:41:05.324Z,11.10
2019-05-28T21:43:37.103Z,9.15
2019-05-28T21:46:09.129Z,11.65
2019-05-28T21:48:40.940Z,11.20
2019-05-28T21:51:13.254Z,13.85
2019-05-28T21:53:45.406Z,12.78
2019-05-28T21:56:17.565Z,12.85
2019-05-28T21:58:49.609Z,13.03
2019-05-28T22:01:26.240Z,11.60
2019-05-28T22:03:59.389Z,12.90
2019-05-28T22:06:31.674Z,13.32
2019-05-28T22:09:05.123Z,13.18
2019-05-28T22:11:38.642Z,13.00
2019-05-28T22:14:10.889Z,12.50
2019-05-28T22:16:43.001Z,11.60
2019-05-28T22:19:14.852Z,14.33
2019-05-28T22:21:47.013Z,15.90
2019-05-28T22:24:18.877Z,16.17
2019-05-28T22:26:50.704Z,13.78
2019-05-28T22:29:22.940Z,15.20
2019-05-28T22:31:54.856Z,17.70
2019-05-28T22:34:26.616Z,16.55
2019-05-28T22:36:58.709Z,17.67
2019-05-28T22:39:30.613Z,13.48
2019-05-28T22:42:03.702Z,13.25
2019-05-28T22:44:35.758Z,14.38
2019-05-28T22:47:07.921Z,14.28
2019-05-28T22:49:39.968Z,15.30
2019-05-28T22:52:12.150Z,15.90
2019-05-28T22:54:43.964Z,14.05
2019-05-28T22:57:16.172Z,14.78
2019-05-28T22:59:48.418Z,15.32
2019-05-28T23:02:20.727Z,13.53
2019-05-28T23:04:52.539Z,12.73
2019-05-28T23:07:24.789Z,15.00
2019-05-28T23:09:56.647Z,16.93
2019-05-28T23:12:28.788Z,16.97
2019-05-28T23:15:02.072Z,17.17
2019-05-28T23:17:34.124Z,13.15
2019-05-28T23:20:06.770Z,12.58
2019-05-28T23:22:38.733Z,15.38
2019-05-28T23:25:11.779Z,14.73
2019-05-28T23:27:44.189Z,12.98
2019-05-28T23:30:24.588Z,14.18
2019-05-28T23:32:49.861Z,15.90
2019-05-28T23:35:21.637Z,11.78
2019-05-28T23:37:53.493Z,11.50
2019-05-28T23:40:25.291Z,12.15
2019-05-28T23:42:57.333Z,16.65
2019-05-28T23:45:29.544Z,14.50
2019-05-28T23:48:01.723Z,16.30
2019-05-28T23:50:33.566Z,13.55
2019-05-28T23:53:05.726Z,13.25
2019-05-28T23:55:37.625Z,14.80
2019-05-28T23:58:09.895Z,12.50
